createdAt,value
2018-11-02T00:00:00.383Z,81.28
2018-11-02T00:00:31.516Z,82.03
2018-11-02T00:01:02.670Z,81.88
2018-11-02T00:01:33.918Z,81.69
2018-11-02T00:02:05.042Z,81.80
2018-11-02T00:02:36.193Z,81.68
2018-11-02T00:03:07.340Z,82.25
2018-11-02T00:03:38.484Z,81.18
2018-11-02T00:04:09.609Z,81.29
2018-11-02T00:04:40.779Z,81.85
2018-11-02T00:05:11.895Z,81.93
2018-11-02T00:05:43.015Z,81.69
2018-11-02T00:06:14.162Z,81.98
2018-11-02T00:06:45.334Z,81.33
2018-11-02T00:07:16.451Z,82.00
2018-11-02T00:07:47.612Z,81.71
2018-11-02T00:08:18.726Z,82.20
2018-11-02T00:08:49.841Z,82.55
2018-11-02T00:09:20.985Z,81.93
2018-11-02T00:09:52.170Z,81.83
2018-11-02T00:10:23.347Z,82.51
2018-11-02T00:10:54.494Z,82.62
2018-11-02T00:11:25.624Z,82.81
2018-11-02T00:11:56.755Z,82.51
2018-11-02T00:12:27.931Z,82.53
2018-11-02T00:12:59.055Z,83.46
2018-11-02T00:13:30.195Z,82.89
2018-11-02T00:14:01.332Z,83.39
2018-11-02T00:14:32.481Z,83.36
2018-11-02T00:15:03.627Z,83.12
2018-11-02T00:15:34.823Z,83.20
2018-11-02T00:16:05.970Z,83.10
2018-11-02T00:16:37.127Z,83.35
2018-11-02T00:17:08.280Z,83.16
2018-11-02T00:17:39.390Z,83.19
2018-11-02T00:18:10.563Z,83.51
2018-11-02T00:18:41.704Z,82.95
2018-11-02T00:19:12.838Z,82.79
2018-11-02T00:19:43.973Z,83.44
2018-11-02T00:20:15.118Z,82.67
2018-11-02T00:20:46.281Z,83.15
2018-11-02T00:21:17.441Z,83.42
2018-11-02T00:21:48.574Z,83.32
2018-11-02T00:22:19.677Z,83.15
2018-11-02T00:22:50.826Z,83.26
2018-11-02T00:23:21.945Z,83.33
2018-11-02T00:23:53.087Z,84.02
2018-11-02T00:24:24.203Z,84.00
2018-11-02T00:24:55.316Z,83.83
2018-11-02T00:25:26.438Z,83.05
2018-11-02T00:25:57.596Z,82.92
2018-11-02T00:26:28.760Z,82.39
2018-11-02T00:26:59.912Z,82.29
2018-11-02T00:27:31.054Z,82.35
2018-11-02T00:28:02.180Z,82.66
2018-11-02T00:28:33.303Z,82.36
2018-11-02T00:29:04.425Z,81.95
2018-11-02T00:29:36.565Z,81.94
2018-11-02T00:30:08.471Z,82.24
2018-11-02T00:30:39.588Z,82.55
2018-11-02T00:31:47.491Z,82.77
2018-11-02T00:32:18.550Z,82.69
2018-11-02T00:32:49.673Z,83.24
2018-11-02T00:33:20.798Z,83.27
2018-11-02T00:33:51.958Z,83.29
2018-11-02T00:34:23.086Z,83.15
2018-11-02T00:34:54.217Z,83.06
2018-11-02T00:35:25.328Z,83.56
2018-11-02T00:35:56.490Z,83.39
2018-11-02T00:36:27.619Z,83.42
2018-11-02T00:36:58.785Z,83.50
2018-11-02T00:37:29.894Z,83.00
2018-11-02T00:38:00.997Z,83.22
2018-11-02T00:38:32.109Z,83.34
2018-11-02T00:39:03.241Z,83.50
2018-11-02T00:39:34.383Z,83.73
2018-11-02T00:40:05.521Z,83.85
2018-11-02T00:40:36.644Z,84.04
2018-11-02T00:41:07.759Z,84.05
2018-11-02T00:41:38.916Z,84.38
2018-11-02T00:42:10.070Z,83.81
2018-11-02T00:42:41.253Z,84.06
2018-11-02T00:43:12.364Z,84.29
2018-11-02T00:43:43.481Z,83.74
2018-11-02T00:44:14.664Z,84.31
2018-11-02T00:44:45.785Z,83.35
2018-11-02T00:45:16.910Z,83.27
2018-11-02T00:45:48.027Z,83.00
2018-11-02T00:46:19.166Z,83.26
2018-11-02T00:46:50.290Z,83.19
2018-11-02T00:47:21.398Z,83.16
2018-11-02T00:47:52.589Z,83.22
2018-11-02T00:48:23.743Z,83.14
2018-11-02T00:48:54.891Z,82.64
2018-11-02T00:49:26.036Z,82.80
2018-11-02T00:49:57.238Z,83.08
2018-11-02T00:50:28.374Z,82.95
2018-11-02T00:50:59.531Z,83.18
2018-11-02T00:51:30.700Z,83.77
2018-11-02T00:52:01.825Z,83.74
2018-11-02T00:52:32.941Z,83.75
2018-11-02T00:53:04.279Z,83.85
2018-11-02T00:53:35.410Z,83.84
2018-11-02T00:54:06.536Z,84.02
2018-11-02T00:54:37.695Z,83.48
2018-11-02T00:55:08.843Z,83.88
2018-11-02T00:55:40.020Z,83.48
2018-11-02T00:56:11.139Z,83.57
2018-11-02T00:56:42.267Z,83.79
2018-11-02T00:57:13.386Z,83.77
2018-11-02T00:57:44.518Z,83.60
2018-11-02T00:58:15.696Z,84.06
2018-11-02T00:58:46.837Z,83.54
2018-11-02T00:59:18.002Z,83.72
2018-11-02T00:59:49.101Z,83.62
2018-11-02T01:00:20.216Z,84.17
2018-11-02T01:00:51.371Z,83.73
2018-11-02T01:01:22.516Z,84.10
2018-11-02T01:01:53.634Z,83.37
2018-11-02T01:02:24.793Z,83.37
2018-11-02T01:02:55.950Z,83.33
2018-11-02T01:03:27.092Z,83.93
2018-11-02T01:03:58.211Z,83.51
2018-11-02T01:04:29.322Z,83.15
2018-11-02T01:05:00.454Z,83.55
2018-11-02T01:05:31.589Z,84.30
2018-11-02T01:06:02.741Z,84.32
2018-11-02T01:06:33.870Z,83.99
2018-11-02T01:07:05.056Z,84.05
2018-11-02T01:07:36.214Z,84.51
2018-11-02T01:08:07.371Z,84.91
2018-11-02T01:08:38.510Z,84.66
2018-11-02T01:09:09.664Z,85.03
2018-11-02T01:09:40.778Z,84.96
2018-11-02T01:10:11.912Z,85.39
2018-11-02T01:10:43.018Z,85.17
2018-11-02T01:11:14.176Z,85.23
2018-11-02T01:11:45.320Z,85.21
2018-11-02T01:12:16.461Z,85.37
2018-11-02T01:12:47.614Z,85.32
2018-11-02T01:13:18.786Z,84.93
2018-11-02T01:13:49.912Z,84.61
2018-11-02T01:14:21.029Z,85.08
2018-11-02T01:14:52.153Z,84.80
2018-11-02T01:15:23.314Z,85.00
2018-11-02T01:15:54.432Z,85.32
2018-11-02T01:16:25.653Z,85.13
2018-11-02T01:16:56.805Z,85.24
2018-11-02T01:17:27.950Z,85.33
2018-11-02T01:17:59.091Z,84.58
2018-11-02T01:18:30.223Z,84.12
2018-11-02T01:19:01.362Z,84.40
2018-11-02T01:19:32.520Z,83.59
2018-11-02T01:20:03.701Z,84.23
2018-11-02T01:20:34.868Z,84.04
2018-11-02T01:21:06.012Z,83.48
2018-11-02T01:21:37.674Z,83.76
2018-11-02T01:22:08.834Z,83.30
2018-11-02T01:22:39.946Z,83.72
2018-11-02T01:23:11.134Z,83.31
2018-11-02T01:23:42.252Z,83.83
2018-11-02T01:24:13.409Z,83.76
2018-11-02T01:24:44.552Z,83.33
2018-11-02T01:25:15.705Z,83.69
2018-11-02T01:25:47.131Z,83.89
2018-11-02T01:26:18.269Z,83.89
2018-11-02T01:26:49.414Z,84.04
2018-11-02T01:27:20.535Z,83.57
2018-11-02T01:27:51.676Z,83.57
2018-11-02T01:28:22.970Z,84.11
2018-11-02T01:28:54.131Z,83.90
2018-11-02T01:29:25.289Z,84.31
2018-11-02T01:29:56.426Z,83.65
2018-11-02T01:30:27.548Z,83.92
2018-11-02T01:30:58.688Z,83.86
2018-11-02T01:31:29.798Z,83.85
2018-11-02T01:32:00.968Z,84.45
2018-11-02T01:32:32.098Z,83.65
2018-11-02T01:33:03.242Z,84.07
2018-11-02T01:33:34.394Z,84.25
2018-11-02T01:34:05.529Z,83.67
2018-11-02T01:34:36.653Z,83.83
2018-11-02T01:35:07.758Z,83.52
2018-11-02T01:35:38.887Z,83.53
2018-11-02T01:36:10.005Z,83.27
2018-11-02T01:36:41.180Z,82.98
2018-11-02T01:37:12.353Z,83.53
2018-11-02T01:37:43.506Z,82.81
2018-11-02T01:38:14.634Z,83.44
2018-11-02T01:38:45.756Z,82.72
2018-11-02T01:39:16.884Z,82.91
2018-11-02T01:39:48.119Z,82.41
2018-11-02T01:40:19.293Z,82.34
2018-11-02T01:40:50.413Z,82.33
2018-11-02T01:41:21.542Z,81.93
2018-11-02T01:41:52.668Z,81.93
2018-11-02T01:42:24.739Z,82.55
2018-11-02T01:42:56.059Z,82.92
2018-11-02T01:43:27.407Z,82.66
2018-11-02T01:43:58.579Z,81.71
2018-11-02T01:44:29.763Z,82.61
2018-11-02T01:45:00.866Z,82.76
2018-11-02T01:45:32.048Z,82.85
2018-11-02T01:46:03.202Z,82.26
2018-11-02T01:46:34.343Z,82.36
2018-11-02T01:47:05.492Z,82.37
2018-11-02T01:47:36.597Z,82.39
2018-11-02T01:48:07.778Z,82.88
2018-11-02T01:48:38.975Z,83.44
2018-11-02T01:49:10.164Z,82.80
2018-11-02T01:49:41.289Z,83.02
2018-11-02T01:50:12.449Z,83.11
2018-11-02T01:50:43.574Z,82.54
2018-11-02T01:51:14.739Z,82.46
2018-11-02T01:51:45.947Z,82.89
2018-11-02T01:52:17.273Z,83.05
2018-11-02T01:52:48.428Z,82.95
2018-11-02T01:53:19.563Z,83.01
2018-11-02T01:53:50.747Z,83.20
2018-11-02T01:54:21.898Z,83.21
2018-11-02T01:54:54.030Z,82.56
2018-11-02T01:55:25.184Z,82.30
2018-11-02T01:55:56.405Z,82.90
2018-11-02T01:56:27.517Z,82.68
2018-11-02T01:56:58.659Z,82.62
2018-11-02T01:57:29.832Z,82.54
2018-11-02T01:58:01.016Z,83.08
2018-11-02T01:58:32.215Z,83.20
2018-11-02T01:59:03.419Z,82.39
2018-11-02T01:59:34.579Z,82.64
2018-11-02T02:00:05.702Z,82.50
2018-11-02T02:00:36.943Z,82.72
2018-11-02T02:01:08.067Z,83.22
2018-11-02T02:01:39.206Z,83.15
2018-11-02T02:02:10.327Z,82.29
2018-11-02T02:02:41.492Z,83.19
2018-11-02T02:03:13.154Z,82.40
2018-11-02T02:03:44.294Z,82.73
2018-11-02T02:04:19.891Z,82.85
2018-11-02T02:04:52.019Z,83.30
2018-11-02T02:05:24.692Z,83.07
2018-11-02T02:05:55.862Z,82.83
2018-11-02T02:06:26.987Z,82.48
2018-11-02T02:06:58.122Z,82.73
2018-11-02T02:07:29.259Z,82.99
2018-11-02T02:08:00.420Z,83.25
2018-11-02T02:08:31.568Z,83.53
2018-11-02T02:09:02.727Z,83.58
2018-11-02T02:09:33.922Z,83.80
2018-11-02T02:10:05.068Z,83.21
2018-11-02T02:10:36.233Z,83.77
2018-11-02T02:11:08.528Z,83.97
2018-11-02T02:11:39.732Z,84.18
2018-11-02T02:12:10.849Z,83.73
2018-11-02T02:12:41.958Z,83.83
2018-11-02T02:13:13.113Z,83.81
2018-11-02T02:13:44.267Z,84.36
2018-11-02T02:14:15.479Z,84.29
2018-11-02T02:14:46.645Z,83.57
2018-11-02T02:15:17.764Z,83.95
2018-11-02T02:15:49.473Z,83.34
2018-11-02T02:16:20.638Z,83.77
2018-11-02T02:16:51.818Z,83.26
2018-11-02T02:17:22.966Z,82.99
2018-11-02T02:17:54.067Z,83.09
2018-11-02T02:18:25.232Z,83.26
2018-11-02T02:18:56.648Z,82.80
2018-11-02T02:19:27.817Z,82.75
2018-11-02T02:19:58.938Z,82.37
2018-11-02T02:20:30.074Z,82.75
2018-11-02T02:21:01.190Z,82.37
2018-11-02T02:21:32.323Z,82.50
2018-11-02T02:22:03.478Z,82.43
2018-11-02T02:22:34.646Z,82.38
2018-11-02T02:23:05.759Z,82.38
2018-11-02T02:23:36.906Z,82.38
2018-11-02T02:24:08.014Z,83.49
2018-11-02T02:24:39.202Z,83.46
2018-11-02T02:25:10.338Z,82.69
2018-11-02T02:25:41.463Z,82.60
2018-11-02T02:26:12.595Z,83.35
2018-11-02T02:26:43.782Z,82.44
2018-11-02T02:27:15.056Z,82.91
2018-11-02T02:27:46.184Z,82.97
2018-11-02T02:28:17.307Z,83.15
2018-11-02T02:28:48.425Z,82.56
2018-11-02T02:29:19.599Z,82.46
2018-11-02T02:29:50.781Z,82.40
2018-11-02T02:30:21.917Z,82.92
2018-11-02T02:30:53.040Z,83.04
2018-11-02T02:31:24.841Z,82.60
2018-11-02T02:31:56.612Z,82.64
2018-11-02T02:32:27.758Z,83.00
2018-11-02T02:32:58.871Z,82.36
2018-11-02T02:33:29.988Z,82.42
2018-11-02T02:34:01.126Z,82.25
2018-11-02T02:34:32.359Z,82.20
2018-11-02T02:35:03.477Z,82.52
2018-11-02T02:35:34.651Z,82.88
2018-11-02T02:36:05.813Z,82.60
2018-11-02T02:36:36.988Z,82.96
2018-11-02T02:37:08.117Z,82.90
2018-11-02T02:37:39.231Z,82.68
2018-11-02T02:38:10.357Z,82.13
2018-11-02T02:38:41.469Z,82.07
2018-11-02T02:39:12.593Z,82.23
2018-11-02T02:39:43.726Z,82.53
2018-11-02T02:40:14.834Z,82.13
2018-11-02T02:40:45.948Z,82.59
2018-11-02T02:41:17.113Z,82.91
2018-11-02T02:41:48.238Z,82.39
2018-11-02T02:42:19.380Z,82.79
2018-11-02T02:42:50.527Z,82.91
2018-11-02T02:43:21.836Z,82.66
2018-11-02T02:43:53.036Z,82.72
2018-11-02T02:44:24.165Z,83.70
2018-11-02T02:44:55.285Z,83.20
2018-11-02T02:45:26.379Z,83.58
2018-11-02T02:45:57.514Z,83.70
2018-11-02T02:46:28.650Z,83.46
2018-11-02T02:46:59.794Z,83.52
2018-11-02T02:47:30.956Z,83.75
2018-11-02T02:48:02.117Z,83.85
2018-11-02T02:48:33.795Z,84.26
2018-11-02T02:49:04.970Z,84.26
2018-11-02T02:49:36.128Z,84.11
2018-11-02T02:50:07.290Z,83.61
2018-11-02T02:50:38.421Z,83.86
2018-11-02T02:51:11.963Z,83.99
2018-11-02T02:51:43.102Z,83.37
2018-11-02T02:52:14.312Z,83.13
2018-11-02T02:52:46.268Z,83.51
2018-11-02T02:53:17.435Z,83.00
2018-11-02T02:53:48.538Z,83.10
2018-11-02T02:54:19.677Z,83.49
2018-11-02T02:54:50.813Z,83.31
2018-11-02T02:55:22.077Z,82.68
2018-11-02T02:55:53.207Z,83.23
2018-11-02T02:56:24.350Z,83.41
2018-11-02T02:56:55.478Z,83.24
2018-11-02T02:57:26.710Z,82.57
2018-11-02T02:57:58.642Z,82.63
2018-11-02T02:58:29.810Z,82.97
2018-11-02T02:59:00.950Z,82.96
2018-11-02T02:59:32.162Z,82.32
2018-11-02T03:00:03.294Z,82.32
2018-11-02T03:00:34.440Z,83.09
2018-11-02T03:01:05.573Z,82.55
2018-11-02T03:01:36.684Z,83.32
2018-11-02T03:02:07.844Z,83.75
2018-11-02T03:02:39.049Z,83.25
2018-11-02T03:03:10.188Z,83.32
2018-11-02T03:03:41.379Z,82.77
2018-11-02T03:04:12.505Z,83.60
2018-11-02T03:04:43.633Z,83.18
2018-11-02T03:05:14.866Z,83.30
2018-11-02T03:05:45.978Z,83.16
2018-11-02T03:06:17.085Z,83.06
2018-11-02T03:06:48.208Z,82.85
2018-11-02T03:07:19.389Z,83.40
2018-11-02T03:07:50.549Z,82.52
2018-11-02T03:08:21.676Z,82.93
2018-11-02T03:08:52.869Z,82.26
2018-11-02T03:09:24.123Z,82.56
2018-11-02T03:09:55.291Z,82.27
2018-11-02T03:10:26.529Z,82.38
2018-11-02T03:10:57.805Z,82.12
2018-11-02T03:11:28.760Z,81.78
2018-11-02T03:11:59.903Z,81.72
2018-11-02T03:12:31.025Z,81.71
2018-11-02T03:13:02.176Z,82.19
2018-11-02T03:13:33.290Z,81.68
2018-11-02T03:14:04.489Z,82.05
2018-11-02T03:14:35.620Z,82.01
2018-11-02T03:15:06.782Z,81.80
2018-11-02T03:15:37.946Z,82.24
2018-11-02T03:16:09.072Z,81.59
2018-11-02T03:16:40.207Z,81.70
2018-11-02T03:17:11.328Z,82.00
2018-11-02T03:17:42.521Z,82.07
2018-11-02T03:18:13.683Z,81.36
2018-11-02T03:18:44.888Z,81.95
2018-11-02T03:19:15.962Z,81.98
2018-11-02T03:19:47.132Z,82.10
2018-11-02T03:20:18.245Z,81.46
2018-11-02T03:20:49.399Z,81.61
2018-11-02T03:21:20.509Z,81.53
2018-11-02T03:21:51.614Z,81.78
2018-11-02T03:22:22.790Z,82.12
2018-11-02T03:22:53.874Z,82.02
2018-11-02T03:23:25.023Z,82.41
2018-11-02T03:23:56.189Z,82.26
2018-11-02T03:24:27.366Z,82.25
2018-11-02T03:24:58.516Z,81.59
2018-11-02T03:25:29.686Z,81.81
2018-11-02T03:26:00.845Z,82.30
2018-11-02T03:26:31.956Z,81.73
2018-11-02T03:27:03.145Z,82.24
2018-11-02T03:27:34.288Z,82.77
2018-11-02T03:28:05.457Z,82.39
2018-11-02T03:28:36.610Z,82.41
2018-11-02T03:29:07.726Z,82.44
2018-11-02T03:29:38.839Z,83.23
2018-11-02T03:30:10.042Z,82.87
2018-11-02T03:30:41.199Z,82.68
2018-11-02T03:31:12.365Z,82.35
2018-11-02T03:31:43.492Z,82.26
2018-11-02T03:32:14.619Z,82.50
2018-11-02T03:32:45.780Z,82.24
2018-11-02T03:33:16.932Z,82.04
2018-11-02T03:33:48.098Z,81.79
2018-11-02T03:34:19.247Z,81.96
2018-11-02T03:34:50.383Z,81.96
2018-11-02T03:35:21.532Z,81.42
2018-11-02T03:35:52.656Z,81.66
2018-11-02T03:36:23.815Z,81.70
2018-11-02T03:36:54.935Z,81.45
2018-11-02T03:37:26.047Z,82.05
2018-11-02T03:37:57.228Z,81.94
2018-11-02T03:38:28.385Z,82.06
2018-11-02T03:38:59.491Z,81.62
2018-11-02T03:39:30.616Z,82.04
2018-11-02T03:40:01.810Z,82.25
2018-11-02T03:40:32.891Z,82.19
2018-11-02T03:41:04.041Z,81.63
2018-11-02T03:41:35.179Z,82.36
2018-11-02T03:42:06.321Z,82.02
2018-11-02T03:42:37.447Z,81.97
2018-11-02T03:43:08.954Z,82.31
2018-11-02T03:43:40.093Z,81.92
2018-11-02T03:44:11.191Z,82.00
2018-11-02T03:44:42.308Z,82.25
2018-11-02T03:45:13.419Z,81.97
2018-11-02T03:45:44.546Z,82.26
2018-11-02T03:46:15.669Z,82.20
2018-11-02T03:46:46.800Z,82.32
2018-11-02T03:47:17.937Z,82.69
2018-11-02T03:47:49.066Z,82.45
2018-11-02T03:48:20.270Z,82.73
2018-11-02T03:48:51.441Z,82.48
2018-11-02T03:49:22.574Z,81.93
2018-11-02T03:49:53.729Z,82.04
2018-11-02T03:50:25.292Z,81.94
2018-11-02T03:50:56.741Z,81.68
2018-11-02T03:51:27.866Z,81.69
2018-11-02T03:51:58.992Z,81.37
2018-11-02T03:52:30.128Z,81.92
2018-11-02T03:53:01.247Z,81.33
2018-11-02T03:53:32.456Z,80.96
2018-11-02T03:54:03.630Z,81.20
2018-11-02T03:54:34.803Z,81.04
2018-11-02T03:55:05.939Z,81.66
2018-11-02T03:55:37.053Z,81.55
2018-11-02T03:56:08.297Z,81.96
2018-11-02T03:56:39.495Z,81.69
2018-11-02T03:57:10.592Z,81.21
2018-11-02T03:57:41.729Z,81.79
2018-11-02T03:58:12.843Z,81.38
2018-11-02T03:58:44.026Z,81.71
2018-11-02T03:59:15.140Z,81.76
2018-11-02T03:59:46.276Z,82.09
2018-11-02T04:00:17.424Z,81.36
2018-11-02T04:00:48.575Z,81.79
2018-11-02T04:01:19.695Z,81.40
2018-11-02T04:01:50.823Z,81.13
2018-11-02T04:02:21.994Z,81.31
2018-11-02T04:02:53.138Z,81.65
2018-11-02T04:03:24.255Z,81.69
2018-11-02T04:03:55.409Z,81.78
2018-11-02T04:04:26.584Z,81.75
2018-11-02T04:04:57.724Z,81.21
2018-11-02T04:05:28.913Z,81.80
2018-11-02T04:06:00.061Z,81.25
2018-11-02T04:06:32.273Z,81.27
2018-11-02T04:07:03.489Z,80.70
2018-11-02T04:07:34.646Z,81.03
2018-11-02T04:08:05.812Z,80.42
2018-11-02T04:08:36.933Z,81.03
2018-11-02T04:09:08.096Z,80.83
2018-11-02T04:09:39.292Z,81.23
2018-11-02T04:10:10.439Z,80.95
2018-11-02T04:10:41.576Z,80.91
2018-11-02T04:11:12.706Z,81.06
2018-11-02T04:11:43.870Z,80.41
2018-11-02T04:12:14.986Z,80.83
2018-11-02T04:12:46.173Z,80.38
2018-11-02T04:13:17.348Z,80.92
2018-11-02T04:13:48.502Z,80.46
2018-11-02T04:14:19.681Z,80.67
2018-11-02T04:14:50.813Z,81.02
2018-11-02T04:15:22.000Z,80.75
2018-11-02T04:15:53.158Z,80.76
2018-11-02T04:16:24.306Z,80.11
2018-11-02T04:16:55.453Z,80.42
2018-11-02T04:17:26.575Z,80.14
2018-11-02T04:17:57.687Z,80.85
2018-11-02T04:18:28.837Z,80.25
2018-11-02T04:18:59.942Z,80.74
2018-11-02T04:19:31.099Z,80.44
2018-11-02T04:20:02.245Z,81.09
2018-11-02T04:20:33.415Z,80.78
2018-11-02T04:21:05.335Z,81.32
2018-11-02T04:21:37.320Z,80.75
2018-11-02T04:22:08.558Z,81.56
2018-11-02T04:22:39.731Z,81.48
2018-11-02T04:23:10.935Z,80.97
2018-11-02T04:23:42.084Z,81.06
2018-11-02T04:24:13.220Z,81.51
2018-11-02T04:24:44.325Z,81.63
2018-11-02T04:25:15.432Z,81.29
2018-11-02T04:25:46.596Z,81.47
2018-11-02T04:26:17.714Z,81.21
2018-11-02T04:26:48.835Z,81.44
2018-11-02T04:27:19.947Z,81.44
2018-11-02T04:27:51.077Z,81.35
2018-11-02T04:28:22.253Z,80.72
2018-11-02T04:28:53.362Z,81.34
2018-11-02T04:29:24.498Z,81.43
2018-11-02T04:29:56.706Z,80.59
2018-11-02T04:30:27.864Z,80.05
2018-11-02T04:30:59.128Z,80.33
2018-11-02T04:31:30.158Z,80.52
2018-11-02T04:32:01.308Z,80.27
2018-11-02T04:32:32.440Z,79.75
2018-11-02T04:33:03.559Z,80.58
2018-11-02T04:33:34.751Z,80.05
2018-11-02T04:34:05.893Z,79.96
2018-11-02T04:34:37.050Z,80.23
2018-11-02T04:35:08.172Z,80.20
2018-11-02T04:35:39.342Z,80.68
2018-11-02T04:36:10.471Z,80.11
2018-11-02T04:36:41.617Z,79.79
2018-11-02T04:37:12.788Z,79.36
2018-11-02T04:37:43.893Z,79.89
2018-11-02T04:38:15.012Z,79.61
2018-11-02T04:38:46.143Z,80.24
2018-11-02T04:39:17.299Z,79.66
2018-11-02T04:39:48.528Z,79.21
2018-11-02T04:40:19.652Z,79.20
2018-11-02T04:40:50.762Z,79.71
2018-11-02T04:41:21.940Z,79.76
2018-11-02T04:41:53.111Z,79.74
2018-11-02T04:42:24.256Z,79.49
2018-11-02T04:42:55.412Z,79.32
2018-11-02T04:43:26.514Z,79.74
2018-11-02T04:43:57.653Z,79.21
2018-11-02T04:44:28.794Z,79.62
2018-11-02T04:44:59.925Z,79.67
2018-11-02T04:45:31.125Z,79.83
2018-11-02T04:46:02.265Z,79.87
2018-11-02T04:46:33.372Z,80.20
2018-11-02T04:47:04.501Z,80.17
2018-11-02T04:47:35.662Z,80.14
2018-11-02T04:48:06.783Z,79.57
2018-11-02T04:48:37.890Z,79.01
2018-11-02T04:49:09.051Z,78.73
2018-11-02T04:49:42.097Z,79.35
2018-11-02T04:50:13.228Z,78.60
2018-11-02T04:50:44.377Z,78.36
2018-11-02T04:51:15.592Z,78.66
2018-11-02T04:51:46.688Z,78.58
2018-11-02T04:52:17.822Z,78.77
2018-11-02T04:52:48.972Z,78.70
2018-11-02T04:53:21.121Z,78.67
2018-11-02T04:53:52.280Z,78.81
2018-11-02T04:54:23.440Z,79.04
2018-11-02T04:54:54.570Z,79.19
2018-11-02T04:55:28.648Z,79.11
2018-11-02T04:55:59.814Z,79.81
2018-11-02T04:56:30.960Z,79.46
2018-11-02T04:57:02.098Z,79.48
2018-11-02T04:57:33.268Z,79.39
2018-11-02T04:58:04.442Z,79.70
2018-11-02T04:58:36.564Z,79.14
2018-11-02T04:59:07.781Z,79.36
2018-11-02T04:59:38.893Z,78.23
2018-11-02T05:00:10.012Z,79.04
2018-11-02T05:00:41.180Z,79.11
2018-11-02T05:01:12.338Z,79.33
2018-11-02T05:01:43.498Z,78.67
2018-11-02T05:02:14.625Z,79.25
2018-11-02T05:02:45.819Z,78.60
2018-11-02T05:03:17.005Z,79.19
2018-11-02T05:03:48.670Z,79.26
2018-11-02T05:04:19.815Z,78.55
2018-11-02T05:04:50.934Z,78.60
2018-11-02T05:05:22.112Z,78.57
2018-11-02T05:05:53.260Z,79.28
2018-11-02T05:06:24.456Z,78.95
2018-11-02T05:06:55.713Z,78.91
2018-11-02T05:07:26.885Z,79.10
2018-11-02T05:07:58.113Z,79.69
2018-11-02T05:08:29.305Z,78.86
2018-11-02T05:09:00.432Z,79.57
2018-11-02T05:09:31.553Z,78.93
2018-11-02T05:10:02.835Z,78.95
2018-11-02T05:10:33.828Z,79.42
2018-11-02T05:11:04.960Z,78.97
2018-11-02T05:11:36.219Z,78.99
2018-11-02T05:12:07.241Z,79.54
2018-11-02T05:12:38.362Z,79.52
2018-11-02T05:13:09.490Z,79.26
2018-11-02T05:13:40.621Z,78.90
2018-11-02T05:14:11.795Z,79.29
2018-11-02T05:14:42.933Z,79.33
2018-11-02T05:15:14.068Z,78.80
2018-11-02T05:15:45.220Z,79.44
2018-11-02T05:16:16.375Z,78.84
2018-11-02T05:16:47.504Z,79.39
2018-11-02T05:17:18.639Z,79.58
2018-11-02T05:17:49.764Z,79.50
2018-11-02T05:18:20.926Z,79.54
2018-11-02T05:18:52.073Z,79.31
2018-11-02T05:19:23.276Z,79.30
2018-11-02T05:19:54.446Z,79.48
2018-11-02T05:20:25.582Z,79.12
2018-11-02T05:20:56.780Z,79.02
2018-11-02T05:21:27.966Z,78.95
2018-11-02T05:21:59.083Z,79.13
2018-11-02T05:22:30.622Z,79.32
2018-11-02T05:23:01.775Z,79.18
2018-11-02T05:23:32.936Z,79.50
2018-11-02T05:24:04.056Z,79.47
2018-11-02T05:24:35.236Z,79.47
2018-11-02T05:25:06.386Z,78.88
2018-11-02T05:25:37.530Z,78.80
2018-11-02T05:26:09.463Z,79.32
2018-11-02T05:26:40.624Z,78.66
2018-11-02T05:27:11.765Z,79.41
2018-11-02T05:27:42.962Z,79.15
2018-11-02T05:28:14.118Z,78.72
2018-11-02T05:28:45.288Z,78.99
2018-11-02T05:29:16.417Z,79.80
2018-11-02T05:29:47.548Z,79.35
2018-11-02T05:30:19.617Z,79.47
2018-11-02T05:30:51.606Z,79.50
2018-11-02T05:31:22.876Z,79.47
2018-11-02T05:31:54.042Z,79.65
2018-11-02T05:32:25.224Z,79.19
2018-11-02T05:32:56.371Z,79.27
2018-11-02T05:33:27.536Z,79.45
2018-11-02T05:33:58.804Z,79.21
2018-11-02T05:34:29.958Z,78.71
2018-11-02T05:35:01.074Z,78.97
2018-11-02T05:35:32.221Z,79.11
2018-11-02T05:36:03.376Z,79.28
2018-11-02T05:36:35.579Z,79.32
2018-11-02T05:37:06.848Z,79.33
2018-11-02T05:37:37.996Z,78.75
2018-11-02T05:38:09.139Z,79.12
2018-11-02T05:38:40.297Z,78.57
2018-11-02T05:39:11.530Z,79.08
2018-11-02T05:39:42.759Z,78.33
2018-11-02T05:40:13.883Z,79.01
2018-11-02T05:40:45.046Z,78.76
2018-11-02T05:41:16.171Z,78.53
2018-11-02T05:41:47.319Z,78.16
2018-11-02T05:42:18.443Z,78.53
2018-11-02T05:42:49.570Z,77.93
2018-11-02T05:43:20.715Z,78.72
2018-11-02T05:43:51.893Z,78.00
2018-11-02T05:44:23.080Z,79.04
2018-11-02T05:44:54.236Z,78.70
2018-11-02T05:45:25.360Z,78.55
2018-11-02T05:45:56.504Z,78.33
2018-11-02T05:46:27.633Z,78.70
2018-11-02T05:46:58.818Z,78.48
2018-11-02T05:47:30.063Z,78.61
2018-11-02T05:48:01.162Z,78.43
2018-11-02T05:48:32.306Z,78.33
2018-11-02T05:49:03.500Z,78.44
2018-11-02T05:49:34.670Z,78.57
2018-11-02T05:50:05.787Z,78.49
2018-11-02T05:50:36.923Z,78.28
2018-11-02T05:51:08.069Z,78.37
2018-11-02T05:51:39.226Z,78.06
2018-11-02T05:52:10.391Z,78.38
2018-11-02T05:52:41.505Z,77.73
2018-11-02T05:53:12.654Z,78.17
2018-11-02T05:53:44.867Z,78.06
2018-11-02T05:54:16.717Z,78.31
2018-11-02T05:54:47.880Z,78.06
2018-11-02T05:55:19.035Z,77.99
2018-11-02T05:55:50.196Z,78.16
2018-11-02T05:56:21.497Z,77.64
2018-11-02T05:56:52.794Z,77.88
2018-11-02T06:00:02.789Z,78.45
2018-11-02T06:00:33.946Z,78.33
2018-11-02T06:01:06.270Z,78.78
2018-11-02T06:01:37.484Z,78.96
2018-11-02T06:02:08.592Z,80.13
2018-11-02T06:02:39.757Z,79.75
2018-11-02T06:03:10.871Z,79.07
2018-11-02T06:03:41.999Z,78.87
2018-11-02T06:04:13.139Z,78.91
2018-11-02T06:04:44.267Z,79.14
2018-11-02T06:05:16.047Z,78.86
2018-11-02T06:05:47.237Z,78.82
2018-11-02T06:06:19.403Z,78.29
2018-11-02T06:06:50.562Z,79.19
2018-11-02T06:07:21.693Z,78.33
2018-11-02T06:07:52.855Z,78.64
2018-11-02T06:08:23.990Z,78.29
2018-11-02T06:08:55.116Z,78.10
2018-11-02T06:09:26.233Z,77.96
2018-11-02T06:09:57.355Z,77.72
2018-11-02T06:10:28.525Z,77.81
2018-11-02T06:10:59.676Z,77.85
2018-11-02T06:11:30.804Z,77.62
2018-11-02T06:12:01.907Z,77.18
2018-11-02T06:12:33.057Z,77.52
2018-11-02T06:13:04.212Z,76.91
2018-11-02T06:13:35.366Z,77.50
2018-11-02T06:14:06.489Z,77.29
2018-11-02T06:14:37.708Z,77.01
2018-11-02T06:15:08.854Z,76.98
2018-11-02T06:15:39.976Z,77.10
2018-11-02T06:16:11.129Z,76.95
2018-11-02T06:16:42.251Z,76.77
2018-11-02T06:17:13.351Z,76.28
2018-11-02T06:17:44.488Z,76.74
2018-11-02T06:18:15.696Z,76.81
2018-11-02T06:18:46.853Z,76.16
2018-11-02T06:19:18.010Z,76.28
2018-11-02T06:19:49.149Z,76.87
2018-11-02T06:20:20.290Z,77.18
2018-11-02T06:20:51.394Z,76.97
2018-11-02T06:21:22.508Z,76.31
2018-11-02T06:21:53.642Z,76.92
2018-11-02T06:22:24.770Z,76.89
2018-11-02T06:22:55.953Z,76.47
2018-11-02T06:23:27.079Z,76.67
2018-11-02T06:23:58.265Z,77.23
2018-11-02T06:24:29.518Z,77.51
2018-11-02T06:25:00.575Z,76.46
2018-11-02T06:25:31.707Z,77.49
2018-11-02T06:26:02.847Z,76.54
2018-11-02T06:26:33.953Z,76.51
2018-11-02T06:27:05.067Z,76.59
2018-11-02T06:27:36.187Z,76.92
2018-11-02T06:28:07.355Z,76.26
2018-11-02T06:28:38.484Z,76.52
2018-11-02T06:29:09.602Z,76.91
2018-11-02T06:29:40.823Z,76.37
2018-11-02T06:30:11.953Z,76.83
2018-11-02T06:30:43.256Z,76.62
2018-11-02T06:31:14.237Z,76.24
2018-11-02T06:31:45.380Z,77.13
2018-11-02T06:32:16.519Z,77.22
2018-11-02T06:32:47.699Z,76.84
2018-11-02T06:33:18.815Z,77.30
2018-11-02T06:33:49.951Z,77.59
2018-11-02T06:34:21.091Z,76.69
2018-11-02T06:34:52.259Z,77.21
2018-11-02T06:35:23.380Z,77.34
2018-11-02T06:35:54.491Z,76.99
2018-11-02T06:36:25.649Z,77.05
2018-11-02T06:36:56.796Z,76.44
2018-11-02T06:37:27.952Z,76.51
2018-11-02T06:37:59.114Z,76.99
2018-11-02T06:38:30.249Z,76.39
2018-11-02T06:39:01.384Z,77.03
2018-11-02T06:39:32.560Z,76.91
2018-11-02T06:40:03.915Z,76.92
2018-11-02T06:40:35.062Z,76.84
2018-11-02T06:41:06.267Z,76.23
2018-11-02T06:41:37.397Z,76.12
2018-11-02T06:42:08.532Z,76.07
2018-11-02T06:42:39.748Z,76.40
2018-11-02T06:43:10.867Z,76.54
2018-11-02T06:43:42.001Z,76.51
2018-11-02T06:44:13.116Z,75.56
2018-11-02T06:44:44.310Z,76.26